createdAt,value
2018-02-16T00:01:33.206Z,14.00
2018-02-16T00:04:03.185Z,13.07
2018-02-16T00:06:36.430Z,14.95
2018-02-16T00:09:06.713Z,11.90
2018-02-16T00:11:41.352Z,12.88
2018-02-16T00:14:11.375Z,11.23
2018-02-16T00:16:44.557Z,10.88
2018-02-16T00:19:14.513Z,12.35
2018-02-16T00:21:45.488Z,9.65
2018-02-16T00:24:15.934Z,10.63
2018-02-16T00:26:58.007Z,9.55
2018-02-16T00:29:28.376Z,9.65
2018-02-16T00:31:56.643Z,10.45
2018-02-16T00:34:27.159Z,9.35
2018-02-16T00:36:56.917Z,9.05
2018-02-16T00:39:25.936Z,8.40
2018-02-16T00:41:54.246Z,9.50
2018-02-16T00:44:23.775Z,9.77
2018-02-16T00:46:53.000Z,9.43
2018-02-16T00:49:21.273Z,10.68
2018-02-16T00:51:50.169Z,9.02
2018-02-16T00:54:22.992Z,8.75
2018-02-16T00:56:52.415Z,7.47
2018-02-16T00:59:21.353Z,7.50
2018-02-16T01:01:51.233Z,6.90
2018-02-16T01:04:21.090Z,7.85
2018-02-16T01:07:00.906Z,7.35
2018-02-16T01:12:10.913Z,9.05
2018-02-16T01:14:39.185Z,8.15
2018-02-16T01:17:09.244Z,7.80
2018-02-16T01:19:40.772Z,9.30
2018-02-16T01:22:08.952Z,9.68
2018-02-16T01:24:39.010Z,9.77
2018-02-16T01:27:07.477Z,9.80
2018-02-16T01:29:36.346Z,10.50
2018-02-16T01:32:05.939Z,10.85
2018-02-16T01:34:34.382Z,10.07
2018-02-16T01:37:07.604Z,9.45
2018-02-16T01:39:39.068Z,10.05
2018-02-16T01:42:08.778Z,8.90
2018-02-16T01:44:39.105Z,8.38
2018-02-16T01:50:06.425Z,8.20
2018-02-16T01:52:45.256Z,7.80
2018-02-16T01:55:17.245Z,8.60
2018-02-16T01:57:47.465Z,6.82
2018-02-16T02:00:22.989Z,8.23
2018-02-16T02:02:51.995Z,7.32
2018-02-16T02:05:22.052Z,7.00
2018-02-16T02:07:53.719Z,7.28
2018-02-16T02:10:24.101Z,7.22
2018-02-16T02:12:55.346Z,7.30
2018-02-16T02:15:26.820Z,6.40
2018-02-16T02:17:56.324Z,8.13
2018-02-16T02:20:26.734Z,6.40
2018-02-16T02:22:56.634Z,5.93
2018-02-16T02:25:27.915Z,5.82
2018-02-16T02:27:57.778Z,5.10
2018-02-16T02:30:25.914Z,6.45
2018-02-16T02:32:55.647Z,6.05
2018-02-16T02:35:26.785Z,6.82
2018-02-16T02:37:58.983Z,8.27
2018-02-16T02:40:29.084Z,8.70
2018-02-16T02:42:57.778Z,8.63
2018-02-16T02:45:28.595Z,8.35
2018-02-16T02:47:57.090Z,6.78
2018-02-16T02:50:26.929Z,6.60
2018-02-16T02:52:59.085Z,5.75
2018-02-16T02:55:29.559Z,6.15
2018-02-16T02:57:59.176Z,5.97
2018-02-16T03:00:35.018Z,5.25
2018-02-16T03:03:05.010Z,7.35
2018-02-16T03:05:41.646Z,6.18
2018-02-16T03:08:12.734Z,5.70
2018-02-16T03:10:41.585Z,5.78
2018-02-16T03:13:11.484Z,6.30
2018-02-16T03:15:42.987Z,6.07
2018-02-16T03:18:11.525Z,5.93
2018-02-16T03:20:42.195Z,7.10
2018-02-16T03:23:11.811Z,5.50
2018-02-16T03:25:45.569Z,5.30
2018-02-16T03:28:17.320Z,4.90
2018-02-16T03:30:47.968Z,4.68
2018-02-16T03:35:58.347Z,6.78
2018-02-16T03:38:28.001Z,5.40
2018-02-16T03:41:00.520Z,6.00
2018-02-16T03:43:30.150Z,5.00
2018-02-16T03:45:59.705Z,6.20
2018-02-16T03:48:28.849Z,5.72
2018-02-16T03:50:57.804Z,6.00
2018-02-16T03:53:25.939Z,5.55
2018-02-16T03:56:10.363Z,5.40
2018-02-16T03:58:44.289Z,4.87
2018-02-16T04:01:16.525Z,5.43
2018-02-16T04:04:02.713Z,5.60
2018-02-16T04:06:32.141Z,5.68
2018-02-16T04:09:04.114Z,6.43
2018-02-16T04:11:34.280Z,7.53
2018-02-16T04:14:04.265Z,6.75
2018-02-16T04:16:34.203Z,6.90
2018-02-16T04:19:04.991Z,6.00
2018-02-16T04:21:38.340Z,7.15
2018-02-16T04:26:43.740Z,6.37
2018-02-16T04:29:13.958Z,6.22
2018-02-16T04:31:43.661Z,5.22
2018-02-16T04:34:15.301Z,5.93
2018-02-16T04:36:50.707Z,5.97
2018-02-16T04:39:21.469Z,5.72
2018-02-16T04:41:51.208Z,6.70
2018-02-16T04:44:21.405Z,5.37
2018-02-16T04:46:53.709Z,5.35
2018-02-16T04:49:23.590Z,5.62
2018-02-16T04:51:51.846Z,6.50
2018-02-16T04:54:28.458Z,5.80
2018-02-16T04:57:01.296Z,5.20
2018-02-16T04:59:29.468Z,5.60
2018-02-16T05:01:58.688Z,6.57
2018-02-16T05:04:33.366Z,5.82
2018-02-16T05:07:01.601Z,6.93
2018-02-16T05:09:31.864Z,6.80
2018-02-16T05:12:00.995Z,5.80
2018-02-16T05:14:30.956Z,11.20
2018-02-16T05:17:01.095Z,12.60
2018-02-16T05:19:29.336Z,10.05
2018-02-16T05:21:59.756Z,6.57
2018-02-16T05:24:27.998Z,5.22
2018-02-16T05:26:56.205Z,5.78
2018-02-16T05:29:24.737Z,6.70
2018-02-16T05:31:52.984Z,6.22
2018-02-16T05:34:21.975Z,5.65
2018-02-16T05:36:53.074Z,6.70
2018-02-16T05:39:21.244Z,5.40
2018-02-16T05:41:49.405Z,6.68
2018-02-16T05:44:18.549Z,6.97
2018-02-16T05:46:52.675Z,7.18
2018-02-16T05:49:36.153Z,7.20
2018-02-16T05:52:06.459Z,6.60
2018-02-16T05:54:35.085Z,7.55
2018-02-16T05:57:06.036Z,6.47
2018-02-16T05:59:35.708Z,6.18
2018-02-16T06:02:04.463Z,7.45
2018-02-16T06:04:34.308Z,7.90
2018-02-16T06:07:10.436Z,7.15
2018-02-16T06:09:43.963Z,8.43
2018-02-16T06:12:12.184Z,17.90
2018-02-16T06:14:42.153Z,16.23
2018-02-16T06:17:33.007Z,23.00
2018-02-16T06:20:15.383Z,15.10
2018-02-16T06:30:04.705Z,8.40
2018-02-16T06:35:20.205Z,7.93
2018-02-16T06:46:37.996Z,9.35
2018-02-16T06:49:06.468Z,8.07
2018-02-16T06:54:34.179Z,9.52
2018-02-16T07:03:24.322Z,9.85
2018-02-16T07:05:57.813Z,18.05
2018-02-16T07:08:39.373Z,27.70
2018-02-16T07:13:52.907Z,20.65
2018-02-16T07:19:24.772Z,11.38
2018-02-16T07:24:45.777Z,10.75
2018-02-16T07:27:17.211Z,9.80
2018-02-16T07:29:58.179Z,10.60
2018-02-16T07:35:11.349Z,7.35
2018-02-16T07:37:43.205Z,7.50
2018-02-16T07:40:13.402Z,9.40
2018-02-16T07:42:44.563Z,9.40
2018-02-16T07:45:16.034Z,15.63
2018-02-16T07:47:47.587Z,13.50
2018-02-16T07:50:16.817Z,11.07
2018-02-16T07:52:49.926Z,11.80
2018-02-16T07:55:21.890Z,12.25
2018-02-16T07:57:50.971Z,11.10
2018-02-16T08:00:20.592Z,13.00
2018-02-16T08:02:49.630Z,12.15
2018-02-16T08:05:19.601Z,12.80
2018-02-16T08:07:49.143Z,11.27
2018-02-16T08:10:18.341Z,12.20
2018-02-16T08:12:49.037Z,10.77
2018-02-16T08:15:19.281Z,11.77
2018-02-16T08:17:50.013Z,12.90
2018-02-16T08:20:21.813Z,15.05
2018-02-16T08:22:51.632Z,33.58
2018-02-16T08:25:23.492Z,19.77
2018-02-16T08:27:51.661Z,16.77
2018-02-16T08:30:19.849Z,17.87
2018-02-16T08:32:48.786Z,22.92
2018-02-16T08:35:16.971Z,19.20
2018-02-16T08:37:45.788Z,18.60
2018-02-16T08:40:14.022Z,18.00
2018-02-16T08:42:43.178Z,20.40
2018-02-16T08:45:11.695Z,20.73
2018-02-16T08:47:39.853Z,19.42
2018-02-16T08:50:08.336Z,17.87
2018-02-16T08:52:38.514Z,12.32
2018-02-16T08:55:06.681Z,10.57
2018-02-16T08:57:34.852Z,9.10
2018-02-16T09:00:03.715Z,9.85
2018-02-16T09:02:33.940Z,7.95
2018-02-16T09:05:03.626Z,8.35
2018-02-16T09:07:33.674Z,8.32
2018-02-16T09:10:01.846Z,9.20
2018-02-16T09:12:30.056Z,9.25
2018-02-16T09:14:58.216Z,7.90
2018-02-16T09:17:26.978Z,7.75
2018-02-16T09:19:56.126Z,6.93
2018-02-16T09:22:24.754Z,6.47
2018-02-16T09:24:55.706Z,6.22
2018-02-16T09:27:25.776Z,5.70
2018-02-16T09:29:55.038Z,5.70
2018-02-16T09:32:23.966Z,5.78
2018-02-16T09:34:53.545Z,6.55
2018-02-16T09:37:21.731Z,5.95
2018-02-16T09:39:51.344Z,5.72
2018-02-16T09:42:19.496Z,5.62
2018-02-16T09:44:47.687Z,5.82
2018-02-16T09:47:17.834Z,5.80
2018-02-16T09:49:46.078Z,4.70
2018-02-16T09:52:14.250Z,3.60
2018-02-16T09:54:42.434Z,4.20
2018-02-16T09:57:11.588Z,1.90
2018-02-16T09:59:39.795Z,2.78
2018-02-16T10:02:07.947Z,1.75
2018-02-16T10:04:36.181Z,1.95
2018-02-16T10:07:06.956Z,1.65
2018-02-16T10:09:35.615Z,1.45
2018-02-16T10:12:04.776Z,1.85
2018-02-16T10:14:33.058Z,1.55
2018-02-16T10:17:01.283Z,2.00
2018-02-16T10:19:31.296Z,2.55
2018-02-16T10:22:00.882Z,2.95
2018-02-16T10:24:30.372Z,4.62
2018-02-16T10:26:58.704Z,2.30
2018-02-16T10:29:28.489Z,4.60
2018-02-16T10:31:57.146Z,3.53
2018-02-16T10:34:26.073Z,3.40
2018-02-16T10:36:54.237Z,2.25
2018-02-16T10:39:22.481Z,2.35
2018-02-16T10:41:50.680Z,2.40
2018-02-16T10:44:18.867Z,2.53
2018-02-16T10:46:50.817Z,2.58
2018-02-16T10:49:32.956Z,2.00
2018-02-16T10:52:01.123Z,2.55
2018-02-16T10:54:29.394Z,2.00
2018-02-16T10:56:59.484Z,2.30
2018-02-16T10:59:27.668Z,3.03
2018-02-16T11:02:01.498Z,2.30
2018-02-16T11:04:35.359Z,2.28
2018-02-16T11:07:09.245Z,2.42
2018-02-16T11:09:37.446Z,2.72
2018-02-16T11:12:06.392Z,3.35
2018-02-16T11:14:34.538Z,2.90
2018-02-16T11:17:03.568Z,3.10
2018-02-16T11:19:31.736Z,3.97
2018-02-16T11:22:00.133Z,2.87
2018-02-16T11:24:28.297Z,1.95
2018-02-16T11:26:56.464Z,2.30
2018-02-16T11:29:25.222Z,2.25
2018-02-16T11:31:53.394Z,3.05
2018-02-16T11:34:21.629Z,2.60
2018-02-16T11:36:53.815Z,2.90
2018-02-16T11:39:26.737Z,3.12
2018-02-16T11:41:54.892Z,2.85
2018-02-16T11:44:23.182Z,2.50
2018-02-16T11:46:52.211Z,2.62
2018-02-16T11:49:20.384Z,2.37
2018-02-16T11:51:49.132Z,2.10
2018-02-16T11:54:18.118Z,2.22
2018-02-16T11:56:47.654Z,2.00
2018-02-16T11:59:15.817Z,2.58
2018-02-16T12:01:43.989Z,2.37
2018-02-16T12:04:13.944Z,2.95
2018-02-16T12:06:42.273Z,1.92
2018-02-16T12:09:10.463Z,2.25
2018-02-16T12:11:39.453Z,2.20
2018-02-16T12:14:07.730Z,2.10
2018-02-16T12:16:35.943Z,2.20
2018-02-16T12:19:04.223Z,1.52
2018-02-16T12:21:32.409Z,1.75
2018-02-16T12:24:01.410Z,2.12
2018-02-16T12:26:30.431Z,1.92
2018-02-16T12:28:58.685Z,1.75
2018-02-16T12:31:26.871Z,2.35
2018-02-16T12:33:55.040Z,2.42
2018-02-16T12:36:24.248Z,2.78
2018-02-16T12:38:56.218Z,2.50
2018-02-16T12:41:24.388Z,1.90
2018-02-16T12:43:54.016Z,2.33
2018-02-16T12:46:24.204Z,2.17
2018-02-16T12:48:52.390Z,2.17
2018-02-16T12:51:20.612Z,3.05
2018-02-16T12:53:48.785Z,2.85
2018-02-16T12:56:16.939Z,2.20
2018-02-16T12:58:45.093Z,2.10
2018-02-16T13:01:13.248Z,1.65
2018-02-16T13:03:41.413Z,2.25
2018-02-16T13:06:10.427Z,2.37
2018-02-16T13:08:38.581Z,2.25
2018-02-16T13:11:06.761Z,1.58
2018-02-16T13:13:34.922Z,2.30
2018-02-16T13:16:03.905Z,2.45
2018-02-16T13:18:32.474Z,2.12
2018-02-16T13:23:56.611Z,2.17
2018-02-16T13:29:18.745Z,2.12
2018-02-16T13:31:52.699Z,1.95
2018-02-16T13:34:24.171Z,2.72
2018-02-16T13:37:05.108Z,2.40
2018-02-16T13:39:38.025Z,2.90
2018-02-16T13:42:07.432Z,1.73
2018-02-16T13:44:39.469Z,2.47
2018-02-16T13:47:19.087Z,2.33
2018-02-16T13:49:57.820Z,2.40
2018-02-16T13:52:31.262Z,4.18
2018-02-16T13:55:05.566Z,3.60
2018-02-16T13:57:34.448Z,5.35
2018-02-16T14:00:03.425Z,4.18
2018-02-16T14:05:07.166Z,3.75
2018-02-16T14:07:35.394Z,4.20
2018-02-16T14:18:17.656Z,4.70
2018-02-16T14:25:55.930Z,5.78
2018-02-16T14:28:33.376Z,4.55
2018-02-16T14:31:02.961Z,4.28
2018-02-16T14:33:31.227Z,4.57
2018-02-16T14:38:38.664Z,6.40
2018-02-16T14:41:10.829Z,4.30
2018-02-16T14:43:40.953Z,4.32
2018-02-16T14:46:13.567Z,4.03
2018-02-16T14:48:44.167Z,4.75
2018-02-16T14:51:13.407Z,5.97
2018-02-16T14:53:46.952Z,5.40
2018-02-16T14:56:18.170Z,4.93
2018-02-16T14:58:51.278Z,4.62
2018-02-16T15:01:23.025Z,6.85
2018-02-16T15:03:51.683Z,5.05
2018-02-16T15:06:24.280Z,5.18
2018-02-16T15:08:56.365Z,4.60
2018-02-16T15:11:27.017Z,5.25
2018-02-16T15:13:56.515Z,5.47
2018-02-16T15:16:46.369Z,5.15
2018-02-16T15:19:28.528Z,4.68
2018-02-16T15:21:58.290Z,6.45
2018-02-16T15:24:28.444Z,4.40
2018-02-16T15:30:06.732Z,4.15
2018-02-16T15:32:39.683Z,3.92
2018-02-16T15:35:07.973Z,4.30
2018-02-16T15:37:37.900Z,4.70
2018-02-16T15:40:09.978Z,4.47
2018-02-16T15:42:39.059Z,4.25
2018-02-16T15:45:08.075Z,5.53
2018-02-16T15:47:37.543Z,5.72
2018-02-16T15:50:06.350Z,6.37
2018-02-16T15:52:36.607Z,6.43
2018-02-16T15:55:07.501Z,7.20
2018-02-16T15:57:35.700Z,5.60
2018-02-16T16:00:04.791Z,6.65
2018-02-16T16:02:33.537Z,7.18
2018-02-16T16:05:02.440Z,12.88
2018-02-16T16:07:32.147Z,12.35
2018-02-16T16:10:00.315Z,9.93
2018-02-16T16:12:30.533Z,9.40
2018-02-16T16:15:01.766Z,7.93
2018-02-16T16:17:31.490Z,10.65
2018-02-16T16:20:00.430Z,8.80
2018-02-16T16:22:29.108Z,10.20
2018-02-16T16:24:58.105Z,9.90
2018-02-16T16:27:27.147Z,9.65
2018-02-16T16:29:58.507Z,7.45
2018-02-16T16:32:29.083Z,7.12
2018-02-16T16:35:00.101Z,6.60
2018-02-16T16:37:28.573Z,8.68
2018-02-16T16:39:57.632Z,8.77
2018-02-16T16:42:28.694Z,7.62
2018-02-16T16:44:57.620Z,6.70
2018-02-16T16:47:26.769Z,6.30
2018-02-16T16:49:57.539Z,7.05
2018-02-16T16:52:27.594Z,5.37
2018-02-16T16:54:57.614Z,11.88
2018-02-16T16:57:26.740Z,13.05
2018-02-16T16:59:54.905Z,8.70
2018-02-16T17:02:25.466Z,4.53
2018-02-16T17:04:54.258Z,7.65
2018-02-16T17:07:24.117Z,16.12
2018-02-16T17:09:53.147Z,33.30
2018-02-16T17:12:23.401Z,35.33
2018-02-16T17:14:52.357Z,57.03
2018-02-16T17:17:28.796Z,29.67
2018-02-16T17:19:58.602Z,11.52
2018-02-16T17:22:30.838Z,10.75
2018-02-16T17:24:59.305Z,8.50
2018-02-16T17:27:30.096Z,10.07
2018-02-16T17:29:59.330Z,7.15
2018-02-16T17:32:28.474Z,6.05
2018-02-16T17:34:58.761Z,4.12
2018-02-16T17:37:28.419Z,3.80
2018-02-16T17:39:59.731Z,3.37
2018-02-16T17:42:45.933Z,3.67
2018-02-16T17:45:14.896Z,3.10
2018-02-16T17:47:45.720Z,3.62
2018-02-16T17:50:14.811Z,4.00
2018-02-16T17:52:43.091Z,3.85
2018-02-16T17:55:12.242Z,3.95
2018-02-16T17:57:40.617Z,3.30
2018-02-16T18:00:08.847Z,3.40
2018-02-16T18:02:37.868Z,4.62
2018-02-16T18:05:10.660Z,4.20
2018-02-16T18:07:42.963Z,4.28
2018-02-16T18:10:11.821Z,5.35
2018-02-16T18:12:40.579Z,10.20
2018-02-16T18:15:09.295Z,7.40
2018-02-16T18:17:38.083Z,7.47
2018-02-16T18:20:06.233Z,6.95
2018-02-16T18:22:34.414Z,3.90
2018-02-16T18:25:03.208Z,3.62
2018-02-16T18:27:32.531Z,4.60
2018-02-16T18:30:01.637Z,4.47
2018-02-16T18:32:31.032Z,4.78
2018-02-16T18:34:59.853Z,4.10
2018-02-16T18:37:28.021Z,4.90
2018-02-16T18:39:56.439Z,5.50
2018-02-16T18:42:25.412Z,4.12
2018-02-16T18:44:57.674Z,5.57
2018-02-16T18:47:28.662Z,4.70
2018-02-16T18:49:57.781Z,4.15
2018-02-16T18:52:28.300Z,5.90
2018-02-16T18:54:56.553Z,6.93
2018-02-16T18:57:28.133Z,8.07
2018-02-16T18:59:56.750Z,8.40
2018-02-16T19:02:27.235Z,17.90
2018-02-16T19:04:55.791Z,5.65
2018-02-16T19:07:25.695Z,4.75
2018-02-16T19:09:56.368Z,3.97
2018-02-16T19:12:27.918Z,3.95
2018-02-16T19:14:59.705Z,4.35
2018-02-16T19:17:30.819Z,4.60
2018-02-16T19:20:02.259Z,4.40
2018-02-16T19:22:30.424Z,5.30
2018-02-16T19:25:00.031Z,6.53
2018-02-16T19:27:31.493Z,5.37
2018-02-16T19:30:02.623Z,3.85
2018-02-16T19:32:31.927Z,4.80
2018-02-16T19:35:01.770Z,4.60
2018-02-16T19:37:32.589Z,5.60
2018-02-16T19:40:02.962Z,5.45
2018-02-16T19:42:32.037Z,6.75
2018-02-16T19:45:00.958Z,5.75
2018-02-16T19:47:30.297Z,6.25
2018-02-16T19:49:58.466Z,4.95
2018-02-16T19:52:27.453Z,4.97
2018-02-16T19:55:00.084Z,5.30
2018-02-16T19:57:29.776Z,4.70
2018-02-16T19:59:58.033Z,5.22
2018-02-16T20:02:28.235Z,5.50
2018-02-16T20:04:57.989Z,6.78
2018-02-16T20:07:27.805Z,5.80
2018-02-16T20:09:56.862Z,6.45
2018-02-16T20:12:25.382Z,7.60
2018-02-16T20:14:54.613Z,6.68
2018-02-16T20:17:26.687Z,6.97
2018-02-16T20:19:57.331Z,7.72
2018-02-16T20:22:27.075Z,6.90
2018-02-16T20:24:56.138Z,6.45
2018-02-16T20:27:26.282Z,6.90
2018-02-16T20:29:55.690Z,7.15
2018-02-16T20:32:26.160Z,9.40
2018-02-16T20:34:56.496Z,7.18
2018-02-16T20:37:25.652Z,6.68
2018-02-16T20:39:54.096Z,7.32
2018-02-16T20:42:22.275Z,7.03
2018-02-16T20:44:51.485Z,6.53
2018-02-16T20:47:21.309Z,8.43
2018-02-16T20:49:50.173Z,8.10
2018-02-16T20:52:20.969Z,9.32
2018-02-16T20:54:49.488Z,8.57
2018-02-16T20:57:21.917Z,8.35
2018-02-16T20:59:54.906Z,7.35
2018-02-16T21:02:25.130Z,6.53
2018-02-16T21:04:54.784Z,8.65
2018-02-16T21:07:23.712Z,9.35
2018-02-16T21:09:51.879Z,9.43
2018-02-16T21:12:21.029Z,9.40
2018-02-16T21:14:50.038Z,9.45
2018-02-16T21:17:31.721Z,9.68
2018-02-16T21:20:01.647Z,8.70
2018-02-16T21:22:34.506Z,7.57
2018-02-16T21:25:02.773Z,8.73
2018-02-16T21:30:21.313Z,12.50
2018-02-16T21:32:50.490Z,18.10
2018-02-16T21:35:21.402Z,13.23
2018-02-16T21:37:51.205Z,13.65
2018-02-16T21:40:20.241Z,16.33
2018-02-16T21:42:51.680Z,20.98
2018-02-16T21:45:20.180Z,19.23
2018-02-16T21:47:50.106Z,17.45
2018-02-16T21:50:25.149Z,17.62
2018-02-16T21:52:54.269Z,16.17
2018-02-16T21:55:24.685Z,17.83
2018-02-16T21:57:54.036Z,19.42
2018-02-16T22:02:59.905Z,17.10
2018-02-16T22:05:34.345Z,17.35
2018-02-16T22:08:03.335Z,18.37
2018-02-16T22:10:34.986Z,15.68
2018-02-16T22:13:04.624Z,16.08
2018-02-16T22:15:32.911Z,16.55
2018-02-16T22:18:03.661Z,16.30
2018-02-16T22:20:33.842Z,17.85
2018-02-16T22:23:04.570Z,17.40
2018-02-16T22:25:33.985Z,17.98
2018-02-16T22:28:03.912Z,15.40
2018-02-16T22:30:32.103Z,15.25
2018-02-16T22:33:00.973Z,22.35
2018-02-16T22:35:29.424Z,24.12
2018-02-16T22:38:00.072Z,23.42
2018-02-16T22:40:31.826Z,25.17
2018-02-16T22:43:01.261Z,23.10
2018-02-16T22:45:29.761Z,19.58
2018-02-16T22:48:00.330Z,16.12
2018-02-16T22:50:29.448Z,16.90
2018-02-16T22:52:58.482Z,18.37
2018-02-16T22:55:28.840Z,16.52
2018-02-16T22:57:58.788Z,17.33
2018-02-16T23:00:26.971Z,18.50
2018-02-16T23:02:55.865Z,19.48
2018-02-16T23:05:28.217Z,22.20
2018-02-16T23:07:59.317Z,24.55
2018-02-16T23:10:30.636Z,22.70
2018-02-16T23:13:01.262Z,24.75
2018-02-16T23:15:29.457Z,29.58
2018-02-16T23:17:59.461Z,23.00
2018-02-16T23:20:27.636Z,20.60
2018-02-16T23:22:55.807Z,23.80
2018-02-16T23:25:36.770Z,19.98
2018-02-16T23:28:11.855Z,22.42
2018-02-16T23:30:43.291Z,27.50
2018-02-16T23:33:12.216Z,22.62
2018-02-16T23:35:40.393Z,22.50
2018-02-16T23:38:08.809Z,24.45
2018-02-16T23:40:37.206Z,22.95
2018-02-16T23:43:08.011Z,22.25
2018-02-16T23:45:36.897Z,26.83
2018-02-16T23:48:05.076Z,23.92
2018-02-16T23:50:34.542Z,26.20
2018-02-16T23:53:02.973Z,23.23
2018-02-16T23:55:31.243Z,23.48
2018-02-16T23:57:59.408Z,23.42
